createdAt,value
2023-03-29T00:00:00.945Z,53.55
2023-03-29T00:03:02.388Z,53.87
2023-03-29T00:05:51.152Z,54.01
2023-03-29T00:08:40.077Z,53.91
2023-03-29T00:11:28.735Z,54.08
2023-03-29T00:14:17.367Z,53.93
2023-03-29T00:17:08.010Z,54.16
2023-03-29T00:19:56.632Z,54.40
2023-03-29T00:22:47.086Z,54.29
2023-03-29T00:25:35.678Z,54.55
2023-03-29T00:28:24.885Z,54.10
2023-03-29T00:31:17.556Z,54.14
2023-03-29T00:34:07.828Z,54.10
2023-03-29T00:36:58.196Z,54.37
2023-03-29T00:39:47.750Z,54.08
2023-03-29T00:42:36.398Z,54.16
2023-03-29T00:45:27.938Z,53.81
2023-03-29T00:48:20.404Z,53.92
2023-03-29T00:51:14.300Z,54.09
2023-03-29T00:54:06.786Z,54.12
2023-03-29T00:56:55.544Z,54.08
2023-03-29T00:59:46.752Z,53.88
2023-03-29T01:02:40.151Z,53.87
2023-03-29T01:05:33.809Z,54.07
2023-03-29T01:08:27.828Z,54.41
2023-03-29T01:11:19.327Z,54.31
2023-03-29T01:14:13.397Z,54.40
2023-03-29T01:17:02.491Z,54.65
2023-03-29T01:19:58.997Z,55.09
2023-03-29T01:23:02.991Z,54.75
2023-03-29T01:26:03.846Z,54.46
2023-03-29T01:29:00.847Z,54.42
2023-03-29T01:31:54.044Z,54.49
2023-03-29T01:34:49.436Z,54.29
2023-03-29T01:37:42.515Z,54.49
2023-03-29T01:40:34.610Z,54.75
2023-03-29T01:43:27.138Z,54.81
2023-03-29T01:46:24.946Z,54.84
2023-03-29T01:49:20.598Z,54.95
2023-03-29T01:52:15.799Z,55.02
2023-03-29T01:55:11.104Z,55.32
2023-03-29T01:58:02.011Z,55.43
2023-03-29T02:00:54.301Z,55.77
2023-03-29T02:03:50.382Z,55.74
2023-03-29T02:06:40.468Z,56.06
2023-03-29T02:09:31.247Z,56.08
2023-03-29T02:12:20.653Z,56.18
2023-03-29T02:15:14.021Z,56.30
2023-03-29T02:18:03.870Z,56.36
2023-03-29T02:20:56.107Z,56.55
2023-03-29T02:23:48.943Z,56.77
2023-03-29T02:26:38.135Z,56.84
2023-03-29T02:29:27.704Z,57.12
2023-03-29T02:32:20.630Z,57.26
2023-03-29T02:35:13.996Z,57.52
2023-03-29T02:38:07.400Z,57.74
2023-03-29T02:40:58.876Z,57.90
2023-03-29T02:43:49.819Z,58.30
2023-03-29T02:46:39.158Z,58.54
2023-03-29T02:49:28.547Z,58.67
2023-03-29T02:52:24.061Z,59.28
2023-03-29T02:55:18.753Z,59.54
2023-03-29T02:58:08.788Z,59.97
2023-03-29T03:01:02.499Z,60.60
2023-03-29T03:03:53.093Z,60.80
2023-03-29T03:06:42.682Z,61.06
2023-03-29T03:09:32.239Z,61.34
2023-03-29T03:12:22.538Z,61.70
2023-03-29T03:15:13.463Z,61.97
2023-03-29T03:18:03.819Z,62.63
2023-03-29T03:20:57.602Z,62.94
2023-03-29T03:23:46.315Z,63.30
2023-03-29T03:26:36.018Z,63.48
2023-03-29T03:29:28.369Z,63.85
2023-03-29T03:32:37.943Z,64.00
2023-03-29T03:35:46.378Z,64.36
2023-03-29T03:38:37.017Z,64.84
2023-03-29T03:41:27.465Z,64.99
2023-03-29T03:44:16.525Z,65.13
2023-03-29T03:47:09.541Z,65.43
2023-03-29T03:49:59.255Z,65.73
2023-03-29T03:52:48.645Z,66.06
2023-03-29T03:55:37.305Z,66.24
2023-03-29T03:58:37.274Z,66.37
2023-03-29T04:01:27.304Z,66.64
2023-03-29T04:04:28.174Z,66.88
2023-03-29T04:07:27.682Z,67.16
2023-03-29T04:10:37.421Z,67.29
2023-03-29T04:13:41.570Z,67.53
2023-03-29T04:16:56.921Z,67.74
2023-03-29T04:20:10.268Z,67.94
2023-03-29T04:22:59.003Z,68.06
2023-03-29T04:25:48.118Z,68.15
2023-03-29T04:28:56.414Z,68.33
2023-03-29T04:32:01.537Z,68.48
2023-03-29T04:35:19.528Z,68.65
2023-03-29T04:38:10.454Z,68.76
2023-03-29T04:41:02.062Z,68.92
2023-03-29T04:44:06.899Z,68.89
2023-03-29T04:46:56.382Z,68.94
2023-03-29T04:50:06.613Z,69.08
2023-03-29T04:53:07.442Z,69.28
2023-03-29T04:55:57.956Z,69.49
2023-03-29T04:59:06.570Z,69.65
2023-03-29T05:01:56.801Z,70.03
2023-03-29T05:04:45.529Z,70.13
2023-03-29T05:07:38.198Z,70.48
2023-03-29T05:10:28.345Z,70.57
2023-03-29T05:13:18.135Z,70.68
2023-03-29T05:16:08.906Z,70.93
2023-03-29T05:19:00.190Z,71.02
2023-03-29T05:21:53.043Z,71.07
2023-03-29T05:24:45.000Z,71.05
2023-03-29T05:27:40.407Z,71.15
2023-03-29T05:30:32.173Z,71.22
2023-03-29T05:33:28.703Z,71.47
2023-03-29T05:36:19.162Z,71.66
2023-03-29T05:39:11.368Z,71.83
2023-03-29T05:42:00.798Z,71.96
2023-03-29T05:44:54.651Z,72.01
2023-03-29T05:47:43.409Z,72.19
2023-03-29T05:50:33.796Z,72.39
2023-03-29T05:53:24.760Z,72.42
2023-03-29T05:56:16.454Z,72.53
2023-03-29T05:59:05.526Z,72.54
2023-03-29T06:01:56.425Z,72.63
2023-03-29T06:04:46.040Z,72.98
2023-03-29T06:07:58.121Z,72.84
2023-03-29T06:11:13.707Z,72.97
2023-03-29T06:14:28.929Z,72.88
2023-03-29T06:17:30.942Z,72.67
2023-03-29T06:20:20.093Z,72.78
2023-03-29T06:23:14.522Z,72.78
2023-03-29T06:26:03.326Z,73.02
2023-03-29T06:28:53.178Z,72.84
2023-03-29T06:31:43.078Z,72.76
2023-03-29T06:34:47.107Z,72.86
2023-03-29T06:37:53.664Z,72.93
2023-03-29T06:41:15.424Z,73.08
2023-03-29T06:44:25.516Z,73.06
2023-03-29T06:47:22.862Z,72.98
2023-03-29T06:50:14.955Z,73.21
2023-03-29T06:53:28.116Z,73.39
2023-03-29T06:56:22.659Z,73.12
2023-03-29T06:59:25.110Z,73.02
2023-03-29T07:02:18.645Z,72.99
2023-03-29T07:05:16.749Z,72.84
2023-03-29T07:08:16.326Z,72.80
2023-03-29T07:11:20.373Z,72.72
2023-03-29T07:14:14.826Z,72.48
2023-03-29T07:17:04.159Z,72.32
2023-03-29T07:20:00.015Z,72.22
2023-03-29T07:23:02.671Z,72.16
2023-03-29T07:25:52.831Z,72.01
2023-03-29T07:28:41.940Z,72.02
2023-03-29T07:31:32.917Z,72.02
2023-03-29T07:34:42.537Z,72.02
2023-03-29T07:37:37.944Z,71.99
2023-03-29T07:40:31.718Z,71.72
2023-03-29T07:43:20.467Z,71.57
2023-03-29T07:46:11.250Z,71.40
2023-03-29T07:49:01.003Z,71.36
2023-03-29T07:51:50.172Z,71.30
2023-03-29T07:54:38.941Z,70.98
2023-03-29T07:57:44.643Z,70.96
2023-03-29T08:00:34.606Z,70.78
2023-03-29T08:03:42.254Z,70.87
2023-03-29T08:06:31.632Z,70.71
2023-03-29T08:09:21.159Z,70.56
2023-03-29T08:12:09.940Z,70.65
2023-03-29T08:15:01.873Z,70.38
2023-03-29T08:17:55.003Z,70.31
2023-03-29T08:20:44.236Z,70.17
2023-03-29T08:23:33.484Z,70.16
2023-03-29T08:26:43.467Z,70.07
2023-03-29T08:29:33.180Z,69.83
2023-03-29T08:32:23.412Z,69.58
2023-03-29T08:35:13.003Z,69.33
2023-03-29T08:38:28.764Z,69.28
2023-03-29T08:41:32.576Z,69.16
2023-03-29T08:44:36.224Z,68.89
2023-03-29T08:47:47.019Z,68.87
2023-03-29T08:50:40.643Z,68.64
2023-03-29T08:53:35.133Z,68.46
2023-03-29T08:56:37.301Z,68.31
2023-03-29T08:59:43.054Z,68.25
2023-03-29T09:02:38.045Z,67.93
2023-03-29T09:05:34.310Z,67.55
2023-03-29T09:08:59.513Z,67.71
2023-03-29T09:12:05.053Z,67.75
2023-03-29T09:15:10.237Z,67.38
2023-03-29T09:18:12.509Z,67.24
2023-03-29T09:21:06.513Z,67.15
2023-03-29T09:24:19.124Z,66.72
2023-03-29T09:27:31.417Z,66.35
2023-03-29T09:30:33.027Z,66.32
2023-03-29T09:33:28.041Z,65.73
2023-03-29T09:36:40.184Z,65.50
2023-03-29T09:39:30.350Z,64.97
2023-03-29T09:42:29.760Z,64.85
2023-03-29T09:45:19.513Z,64.32
2023-03-29T09:48:14.602Z,63.69
2023-03-29T09:51:11.970Z,63.52
2023-03-29T09:54:02.469Z,63.41
2023-03-29T09:57:13.830Z,62.61
2023-03-29T10:00:05.835Z,62.47
2023-03-29T10:03:02.976Z,62.75
2023-03-29T10:06:05.228Z,62.14
2023-03-29T10:08:58.883Z,61.57
2023-03-29T10:12:08.380Z,60.85
2023-03-29T10:14:57.910Z,60.42
2023-03-29T10:17:46.567Z,60.34
2023-03-29T10:20:36.543Z,59.67
2023-03-29T10:23:25.202Z,59.53
2023-03-29T10:26:23.860Z,58.80
2023-03-29T10:29:14.300Z,58.63
2023-03-29T10:32:03.081Z,58.49
2023-03-29T10:34:54.054Z,58.52
2023-03-29T10:37:43.781Z,58.18
2023-03-29T10:40:35.181Z,57.70
2023-03-29T10:43:29.728Z,57.37
2023-03-29T10:46:23.933Z,56.44
2023-03-29T10:49:19.794Z,56.12
2023-03-29T10:52:09.197Z,55.49
2023-03-29T10:55:00.437Z,55.45
2023-03-29T10:58:00.577Z,54.40
2023-03-29T11:00:56.754Z,53.61
2023-03-29T11:04:10.008Z,53.38
2023-03-29T11:07:17.732Z,53.42
2023-03-29T11:10:26.427Z,53.24
2023-03-29T11:13:23.462Z,53.11
2023-03-29T11:16:23.413Z,52.80
2023-03-29T11:19:40.080Z,52.22
2023-03-29T11:22:39.901Z,51.90
2023-03-29T11:25:42.696Z,51.64
2023-03-29T11:28:39.490Z,51.19
2023-03-29T11:31:39.172Z,50.88
2023-03-29T11:34:40.061Z,50.48
2023-03-29T11:37:35.568Z,50.01
2023-03-29T11:40:39.427Z,49.59
2023-03-29T11:43:34.279Z,49.40
2023-03-29T11:46:29.831Z,48.89
2023-03-29T11:49:24.132Z,48.53
2023-03-29T11:52:16.766Z,48.28
2023-03-29T11:55:10.848Z,48.06
2023-03-29T11:58:05.280Z,47.75
2023-03-29T12:00:57.923Z,47.64
2023-03-29T12:03:53.795Z,48.06
2023-03-29T12:06:52.355Z,47.89
2023-03-29T12:09:46.745Z,47.51
2023-03-29T12:12:44.321Z,47.05
2023-03-29T12:15:38.011Z,47.22
2023-03-29T12:18:31.312Z,47.23
2023-03-29T12:21:24.257Z,46.63
2023-03-29T12:24:17.121Z,46.63
2023-03-29T12:27:26.799Z,46.06
2023-03-29T12:30:37.029Z,46.30
2023-03-29T12:33:47.742Z,45.79
2023-03-29T12:37:12.446Z,45.87
2023-03-29T12:40:14.288Z,45.58
2023-03-29T12:43:27.490Z,45.77
2023-03-29T12:46:35.834Z,45.88
2023-03-29T12:49:29.746Z,45.99
2023-03-29T12:52:27.453Z,46.02
2023-03-29T12:55:25.597Z,45.24
2023-03-29T12:58:27.260Z,44.78
2023-03-29T13:01:25.260Z,44.45
2023-03-29T13:04:20.284Z,43.98
2023-03-29T13:07:15.314Z,44.30
2023-03-29T13:10:10.379Z,44.08
2023-03-29T13:13:12.319Z,44.14
2023-03-29T13:16:20.449Z,43.49
2023-03-29T13:19:22.856Z,43.17
2023-03-29T13:22:23.647Z,42.80
2023-03-29T13:25:31.621Z,42.20
2023-03-29T13:28:27.406Z,42.45
2023-03-29T13:31:29.526Z,41.76
2023-03-29T13:34:31.983Z,41.97
2023-03-29T13:37:32.151Z,41.92
2023-03-29T13:40:34.391Z,41.05
2023-03-29T13:43:33.116Z,41.19
2023-03-29T13:46:36.446Z,40.87
2023-03-29T13:49:27.625Z,40.12
2023-03-29T13:52:22.301Z,39.86
2023-03-29T13:55:18.556Z,39.40
2023-03-29T13:58:15.020Z,39.48
2023-03-29T14:01:11.719Z,38.93
2023-03-29T14:04:02.071Z,39.27
2023-03-29T14:06:53.263Z,38.67
2023-03-29T14:09:46.414Z,38.75
2023-03-29T14:12:41.898Z,38.72
2023-03-29T14:15:43.510Z,38.75
2023-03-29T14:18:38.200Z,39.00
2023-03-29T14:21:27.186Z,39.54
2023-03-29T14:24:21.711Z,39.50
2023-03-29T14:27:13.565Z,39.58
2023-03-29T14:30:03.275Z,39.77
2023-03-29T14:32:52.448Z,39.79
2023-03-29T14:35:43.397Z,40.04
2023-03-29T14:38:33.122Z,40.61
2023-03-29T14:41:24.385Z,40.88
2023-03-29T14:44:15.454Z,41.25
2023-03-29T14:47:05.650Z,41.65
2023-03-29T14:49:57.370Z,41.70
2023-03-29T14:52:53.081Z,41.83
2023-03-29T14:55:42.923Z,42.39
2023-03-29T14:58:34.736Z,42.36
2023-03-29T15:01:26.123Z,42.47
2023-03-29T15:04:15.800Z,42.76
2023-03-29T15:07:05.628Z,42.99
2023-03-29T15:09:58.404Z,43.05
2023-03-29T15:12:47.594Z,42.88
2023-03-29T15:15:39.242Z,42.94
2023-03-29T15:18:32.704Z,42.90
2023-03-29T15:21:23.177Z,42.86
2023-03-29T15:24:22.022Z,42.84
2023-03-29T15:27:16.377Z,42.99
2023-03-29T15:30:14.090Z,43.09
2023-03-29T15:33:22.483Z,42.97
2023-03-29T15:36:13.574Z,43.18
2023-03-29T15:39:02.773Z,43.34
2023-03-29T15:41:54.050Z,43.30
2023-03-29T15:44:44.248Z,43.46
2023-03-29T15:47:32.916Z,43.45
2023-03-29T15:50:22.412Z,43.80
2023-03-29T15:53:15.572Z,43.98
2023-03-29T15:56:07.082Z,44.02
2023-03-29T15:58:57.053Z,44.00
2023-03-29T16:01:47.525Z,43.94
2023-03-29T16:04:36.634Z,43.99
2023-03-29T16:07:25.366Z,44.25
2023-03-29T16:10:14.959Z,44.37
2023-03-29T16:13:03.692Z,44.04
2023-03-29T16:15:52.718Z,44.38
2023-03-29T16:18:42.920Z,44.41
2023-03-29T16:21:33.052Z,44.64
2023-03-29T16:24:24.130Z,44.52
2023-03-29T16:27:12.816Z,44.38
2023-03-29T16:30:02.261Z,44.54
2023-03-29T16:32:50.910Z,44.67
2023-03-29T16:35:41.444Z,44.55
2023-03-29T16:38:30.091Z,44.70
2023-03-29T16:41:19.635Z,44.73
2023-03-29T16:44:08.667Z,44.80
2023-03-29T16:46:58.952Z,44.96
2023-03-29T16:49:49.060Z,45.23
2023-03-29T16:52:39.010Z,45.58
2023-03-29T16:55:28.773Z,46.02
2023-03-29T16:58:17.400Z,46.29
2023-03-29T17:01:10.930Z,46.42
2023-03-29T17:03:59.611Z,46.56
2023-03-29T17:06:49.084Z,46.92
2023-03-29T17:09:40.108Z,46.83
2023-03-29T17:12:28.708Z,47.25
2023-03-29T17:15:18.550Z,47.49
2023-03-29T17:18:07.311Z,47.70
2023-03-29T17:20:59.166Z,47.98
2023-03-29T17:23:47.824Z,48.20
2023-03-29T17:26:38.631Z,48.51
2023-03-29T17:29:27.296Z,48.81
2023-03-29T17:32:16.314Z,48.79
2023-03-29T17:35:05.722Z,49.26
2023-03-29T17:37:54.710Z,49.29
2023-03-29T17:40:43.345Z,49.65
2023-03-29T17:43:34.121Z,49.66
2023-03-29T17:46:23.604Z,49.77
2023-03-29T17:49:13.608Z,49.68
2023-03-29T17:52:02.593Z,49.62
2023-03-29T17:54:51.414Z,49.02
2023-03-29T17:57:40.078Z,49.03
2023-03-29T18:00:31.148Z,49.05
2023-03-29T18:03:19.874Z,48.85
2023-03-29T18:06:09.445Z,49.02
2023-03-29T18:09:01.313Z,49.24
2023-03-29T18:11:50.055Z,49.38
2023-03-29T18:14:38.704Z,49.38
2023-03-29T18:17:29.780Z,49.80
2023-03-29T18:20:18.764Z,50.13
2023-03-29T18:23:08.180Z,50.31
2023-03-29T18:26:00.245Z,50.36
2023-03-29T18:28:49.902Z,50.95
2023-03-29T18:31:38.559Z,51.00
2023-03-29T18:34:30.975Z,51.03
2023-03-29T18:37:19.680Z,51.10
2023-03-29T18:40:10.698Z,51.10
2023-03-29T18:42:59.318Z,51.26
2023-03-29T18:45:48.904Z,51.65
2023-03-29T18:48:39.236Z,51.37
2023-03-29T18:51:30.580Z,51.67
2023-03-29T18:54:19.402Z,51.76
2023-03-29T18:57:08.075Z,51.83
2023-03-29T18:59:56.798Z,52.17
2023-03-29T19:02:46.809Z,52.55
2023-03-29T19:05:39.594Z,52.47
2023-03-29T19:08:30.060Z,52.63
2023-03-29T19:11:21.683Z,52.77
2023-03-29T19:14:15.608Z,53.01
2023-03-29T19:17:05.144Z,52.81
2023-03-29T19:19:54.247Z,52.87
2023-03-29T19:22:43.484Z,53.60
2023-03-29T19:25:33.808Z,53.20
2023-03-29T19:28:22.764Z,53.77
2023-03-29T19:31:12.334Z,54.11
2023-03-29T19:34:01.341Z,54.29
2023-03-29T19:36:50.122Z,54.39
2023-03-29T19:39:41.454Z,55.16
2023-03-29T19:42:31.463Z,55.59
2023-03-29T19:45:24.416Z,55.79
2023-03-29T19:48:21.915Z,56.00
2023-03-29T19:51:12.529Z,56.48
2023-03-29T19:54:01.173Z,57.18
2023-03-29T19:56:52.396Z,57.33
2023-03-29T19:59:43.036Z,57.60
2023-03-29T20:02:32.150Z,57.51
2023-03-29T20:05:22.051Z,57.87
2023-03-29T20:08:10.986Z,58.19
2023-03-29T20:11:00.337Z,58.44
2023-03-29T20:13:49.023Z,58.58
2023-03-29T20:16:40.405Z,58.80
2023-03-29T20:19:29.988Z,59.12
2023-03-29T20:22:19.363Z,59.03
2023-03-29T20:25:09.293Z,59.40
2023-03-29T20:27:59.623Z,59.51
2023-03-29T20:30:51.154Z,59.53
2023-03-29T20:33:42.897Z,59.69
2023-03-29T20:36:31.698Z,60.10
2023-03-29T20:39:25.157Z,60.25
2023-03-29T20:42:15.673Z,60.23
2023-03-29T20:45:04.750Z,60.81
2023-03-29T20:47:58.082Z,60.79
2023-03-29T20:50:48.350Z,60.95
2023-03-29T20:53:36.987Z,61.14
2023-03-29T20:56:26.400Z,61.07
2023-03-29T20:59:15.739Z,61.31
2023-03-29T21:02:04.904Z,61.28
2023-03-29T21:04:54.745Z,61.23
2023-03-29T21:07:48.012Z,61.32
2023-03-29T21:10:36.992Z,61.69
2023-03-29T21:13:26.043Z,61.39
2023-03-29T21:16:15.573Z,61.44
2023-03-29T21:19:04.285Z,61.99
2023-03-29T21:21:52.977Z,62.40
2023-03-29T21:24:43.399Z,62.80
2023-03-29T21:27:32.025Z,62.94
2023-03-29T21:30:21.615Z,63.03
2023-03-29T21:33:10.404Z,62.96
2023-03-29T21:35:59.644Z,63.41
2023-03-29T21:38:48.384Z,63.56
2023-03-29T21:41:39.150Z,63.36
2023-03-29T21:44:27.777Z,63.78
2023-03-29T21:47:17.309Z,63.97
2023-03-29T21:50:06.791Z,64.22
2023-03-29T21:52:56.148Z,64.32
2023-03-29T21:55:45.003Z,64.40
2023-03-29T21:58:35.999Z,64.73
2023-03-29T22:01:24.703Z,65.01
2023-03-29T22:04:22.532Z,65.18
2023-03-29T22:07:18.503Z,65.29
2023-03-29T22:10:09.669Z,65.33
2023-03-29T22:12:58.284Z,65.24
2023-03-29T22:15:50.332Z,65.49
2023-03-29T22:18:46.780Z,65.83
2023-03-29T22:21:37.887Z,65.73
2023-03-29T22:24:26.575Z,65.69
2023-03-29T22:27:15.477Z,66.01
2023-03-29T22:30:06.191Z,66.22
2023-03-29T22:32:57.822Z,66.42
2023-03-29T22:35:46.469Z,66.09
2023-03-29T22:38:35.614Z,66.50
2023-03-29T22:41:26.425Z,66.57
2023-03-29T22:44:15.040Z,66.64
2023-03-29T22:47:05.327Z,66.94
2023-03-29T22:49:55.427Z,66.82
2023-03-29T22:52:46.091Z,67.13
2023-03-29T22:55:34.688Z,67.39
2023-03-29T22:58:24.754Z,67.40
2023-03-29T23:01:13.701Z,67.24
2023-03-29T23:04:03.317Z,67.37
2023-03-29T23:06:53.706Z,67.63
2023-03-29T23:09:42.323Z,67.63
2023-03-29T23:12:31.369Z,67.83
2023-03-29T23:15:23.248Z,67.78
2023-03-29T23:18:13.166Z,67.69
2023-03-29T23:21:02.923Z,67.94
2023-03-29T23:23:53.096Z,68.18
2023-03-29T23:26:43.549Z,68.21
2023-03-29T23:29:32.272Z,68.01
2023-03-29T23:32:21.338Z,68.49
2023-03-29T23:35:10.948Z,68.62
2023-03-29T23:38:00.113Z,68.45
2023-03-29T23:40:55.373Z,68.77
2023-03-29T23:43:48.138Z,68.84
2023-03-29T23:46:36.809Z,68.67
2023-03-29T23:49:26.431Z,68.87
2023-03-29T23:52:15.240Z,68.85
2023-03-29T23:55:06.124Z,69.01
2023-03-29T23:57:56.057Z,69.17
